ADDS METAR Data INFO
IDs: Format: Raw Decoded Include TAF

Data at: 2153 UTC 19 Feb 2018

Region: TOP
KATL 192052Z 17013KT 10SM SCT045 BKN065 BKN250 24/14 A3025 RMK AO2 SLP238 T02390139 55024

KBOS 192054Z 21015G23KT 10SM BKN047 BKN090 OVC220 09/03 A3037 RMK AO2 PK WND 22026/1955 SLP282 T00890033 56018

KBWI 192054Z 14004KT 1 1/4SM -DZ BR OVC004 07/07 A3035 RMK AO2 DZB40 SLP279 P0000 60000 T00670067 56018

KCLE 192051Z 19015G25KT 7SM -RA FEW075 OVC090 14/13 A3003 RMK AO2 SLP172 P0008 60016 T01440128 56016

KCLT 192052Z 00000KT 10SM OVC008 14/12 A3036 RMK AO2 SLP280 T01390122 56013

KCVG 192052Z 21014G21KT 10SM BKN055 BKN070 OVC085 23/14 A3003 RMK AO2 PK WND 19026/2024 SLP164 BINOVC T02280144 55010

KDCA 192052Z 17004KT 10SM OVC006 07/07 A3036 RMK AO2 SLP280 T00720067 56023

KDEN 192053Z 07011KT 2 1/2SM -SN OVC010 M11/M13 A2954 RMK AO2 SLP052 P0000 60000 T11061133 56025 $

KDFW 192053Z 18015KT 10SM BKN048 OVC060 26/16 A2977 RMK AO2 PK WND 18030/2029 SLP074 T02560161 56020

KDTW 192120Z COR 19008KT 3SM -RA BR FEW002 BKN015 OVC025 08/08 A2990 RMK AO2 SFC VIS 4 P0001 T00830083 $

KEWR 192051Z VRB04KT 5SM -DZ BKN018 OVC024 09/04 A3038 RMK AO2 DZB42 SLP287 P0000 60000 T00940039 56015

KFLL 192121Z 09016KT 10SM BKN025 BKN065 26/21 A3021 RMK AO2 T02560211

KIAD 192052Z 17007KT 6SM BR OVC006 08/07 A3033 RMK AO2 DZE50 SLP271 P0000 60000 T00780072 56021

KIAH 192053Z 16019G25KT 10SM SCT035 BKN065 OVC250 26/18 A2995 RMK AO2 PK WND 15029/2031 SLP141 T02610178 56019

KJFK 192051Z 17010KT 10SM BKN025 OVC030 07/06 A3040 RMK AO2 SLP295 T00720056 56019

KLAS 192056Z 35015G24KT 10SM SCT070 BKN110 09/M19 A2967 RMK AO2 SLP043 VIRGA N-E-S T00941194 58006

KLAX 192053Z 26029KT 10SM FEW010 SCT055 14/M01 A2991 RMK AO2 PK WND 26033/2053 SLP126 T01441006 58017

KLGA 192051Z 20006KT 10SM OVC028 09/05 A3039 RMK AO2 SLP289 T00940050 56004 $

KMCO 192053Z 08012KT 10SM FEW047 27/17 A3025 RMK AO2 SLP243 T02670172 55013

KMDW 192053Z 20012G19KT 10SM SCT008 BKN012 OVC019 13/13 A2979 RMK AO2 SLP089 60001 T01330128 55002

KMEM 192054Z 21014G24KT 10SM FEW035 SCT150 BKN250 24/14 A3002 RMK AO2 PK WND 19031/1955 SLP165 T02440144 55016

KMIA 192053Z 09016G22KT 10SM SCT029 SCT042 BKN070 BKN250 27/19 A3021 RMK AO2 SLP231 T02670194 55012 $

KMSP 192126Z 03013G22KT 2SM R30L/5500VP6000FT -SN BR BKN011 OVC017 M05/M07 A2985 RMK AO2 FZRAE19 P0001 I1000 T10501067

KORD 192136Z 21014G23KT 10SM BKN014 BKN030 OVC090 14/12 A2978 RMK AO2 PK WND 21026/2053 T01390117 $

KPDX 192053Z 01004KT 10SM SCT030 SCT050 03/M04 A3022 RMK AO2 SLP234 T00331044 50008

KPHL 192054Z 26005KT 10SM OVC015 09/06 A3038 RMK AO2 SLP288 60000 T00890056 55017 $

KPHX 192051Z 26020G30KT 10SM BKN060 BKN080 18/03 A2966 RMK AO2 PK WND 28030/2049 SLP033 T01830033 58015 $

KPIT 192051Z 24005KT 10SM BKN036 BKN090 OVC230 17/13 A3012 RMK AO2 SLP209 60002 T01720128 55005

KSAN 192051Z 30019G24KT 10SM FEW035 SCT045 15/01 A2998 RMK AO2 SLP151 T01500006 58004

KSEA 192053Z 36010KT 10SM FEW045 FEW250 02/M11 A3021 RMK AO2 SLP241 T00221111 50003

KSFO 192136Z 28016G22KT 10SM BKN046 11/M01 A3003 RMK AO2 WSHFT 2116 T01111011 $

KSLC 192054Z 35013KT 7SM -SN FEW029 BKN038 OVC048 M02/M07 A2958 RMK AO2 SNE25B33 SLP025 VIRGA DSNT SW-W P0000 60000 T10171067 51011 $

KSTL 192051Z 15007KT 10SM BKN035 BKN050 BKN120 OVC250 17/16 A2986 RMK AO2 RAE38 TSE04 SLP110 P0007 60055 T01670156 50001 $

KTPA 192053Z 11008KT 080V150 10SM SCT065 31/13 A3021 RMK AO2 SLP230 T03060133 56019